sensor_id;sensor_type;location;lat;lon;timestamp;P1;durP1;ratioP1;P2;durP2;ratioP2
15159;SDS011;7680;48.800;9.680;2023-03-01T00:02:12;23.17;;;19.50;;
15159;SDS011;7680;48.800;9.680;2023-03-01T00:04:45;23.03;;;20.53;;
15159;SDS011;7680;48.800;9.680;2023-03-01T00:07:18;22.80;;;20.27;;
15159;SDS011;7680;48.800;9.680;2023-03-01T00:09:51;22.03;;;19.70;;
15159;SDS011;7680;48.800;9.680;2023-03-01T00:12:25;22.93;;;19.87;;
15159;SDS011;7680;48.800;9.680;2023-03-01T00:14:58;25.30;;;21.17;;
15159;SDS011;7680;48.800;9.680;2023-03-01T00:17:33;23.53;;;20.50;;
15159;SDS011;7680;48.800;9.680;2023-03-01T00:20:06;21.67;;;19.37;;
15159;SDS011;7680;48.800;9.680;2023-03-01T00:22:41;24.27;;;20.57;;
15159;SDS011;7680;48.800;9.680;2023-03-01T00:25:14;25.87;;;20.67;;
15159;SDS011;7680;48.800;9.680;2023-03-01T00:27:47;23.43;;;19.73;;
15159;SDS011;7680;48.800;9.680;2023-03-01T00:30:20;22.17;;;18.80;;
15159;SDS011;7680;48.800;9.680;2023-03-01T00:32:55;23.00;;;18.90;;
15159;SDS011;7680;48.800;9.680;2023-03-01T00:35:28;24.97;;;19.10;;
15159;SDS011;7680;48.800;9.680;2023-03-01T00:38:01;23.80;;;19.33;;
15159;SDS011;7680;48.800;9.680;2023-03-01T00:40:35;23.97;;;20.87;;
15159;SDS011;7680;48.800;9.680;2023-03-01T00:43:09;23.30;;;20.77;;
15159;SDS011;7680;48.800;9.680;2023-03-01T00:45:42;23.00;;;19.80;;
15159;SDS011;7680;48.800;9.680;2023-03-01T00:48:16;22.63;;;19.77;;
15159;SDS011;7680;48.800;9.680;2023-03-01T00:50:49;26.03;;;21.33;;
15159;SDS011;7680;48.800;9.680;2023-03-01T00:53:22;24.27;;;20.87;;
15159;SDS011;7680;48.800;9.680;2023-03-01T00:55:56;24.23;;;21.43;;
15159;SDS011;7680;48.800;9.680;2023-03-01T00:58:30;23.37;;;20.77;;
15159;SDS011;7680;48.800;9.680;2023-03-01T01:01:07;26.37;;;21.27;;
15159;SDS011;7680;48.800;9.680;2023-03-01T01:03:50;22.63;;;20.23;;
15159;SDS011;7680;48.800;9.680;2023-03-01T01:06:26;22.87;;;20.27;;
15159;SDS011;7680;48.800;9.680;2023-03-01T01:09:02;22.07;;;19.70;;
15159;SDS011;7680;48.800;9.680;2023-03-01T01:11:38;22.43;;;19.47;;
15159;SDS011;7680;48.800;9.680;2023-03-01T01:14:11;21.00;;;18.77;;
15159;SDS011;7680;48.800;9.680;2023-03-01T01:16:44;22.90;;;19.93;;
15159;SDS011;7680;48.800;9.680;2023-03-01T01:19:19;23.53;;;19.17;;
15159;SDS011;7680;48.800;9.680;2023-03-01T01:21:52;22.20;;;19.67;;
15159;SDS011;7680;48.800;9.680;2023-03-01T01:24:25;22.23;;;19.23;;
15159;SDS011;7680;48.800;9.680;2023-03-01T01:26:58;22.03;;;18.90;;
15159;SDS011;7680;48.800;9.680;2023-03-01T01:29:31;22.67;;;20.27;;
15159;SDS011;7680;48.800;9.680;2023-03-01T01:32:05;22.93;;;20.17;;
15159;SDS011;7680;48.800;9.680;2023-03-01T01:34:39;24.93;;;19.63;;
15159;SDS011;7680;48.800;9.680;2023-03-01T01:37:12;24.00;;;19.97;;
15159;SDS011;7680;48.800;9.680;2023-03-01T01:39:45;23.73;;;19.60;;
15159;SDS011;7680;48.800;9.680;2023-03-01T01:42:18;22.33;;;19.90;;
15159;SDS011;7680;48.800;9.680;2023-03-01T01:48:03;23.87;;;19.70;;
15159;SDS011;7680;48.800;9.680;2023-03-01T01:50:40;22.37;;;18.63;;
15159;SDS011;7680;48.800;9.680;2023-03-01T01:53:16;21.63;;;19.03;;
15159;SDS011;7680;48.800;9.680;2023-03-01T01:55:53;23.20;;;19.67;;
15159;SDS011;7680;48.800;9.680;2023-03-01T01:58:29;21.13;;;18.83;;
15159;SDS011;7680;48.800;9.680;2023-03-01T02:01:03;27.47;;;20.60;;
15159;SDS011;7680;48.800;9.680;2023-03-01T02:03:37;24.47;;;20.60;;
15159;SDS011;7680;48.800;9.680;2023-03-01T02:06:17;23.23;;;19.80;;
15159;SDS011;7680;48.800;9.680;2023-03-01T02:08:53;23.90;;;20.93;;
15159;SDS011;7680;48.800;9.680;2023-03-01T02:11:30;26.17;;;21.83;;
15159;SDS011;7680;48.800;9.680;2023-03-01T02:14:08;24.07;;;20.53;;
15159;SDS011;7680;48.800;9.680;2023-03-01T02:16:42;26.00;;;20.60;;
15159;SDS011;7680;48.800;9.680;2023-03-01T02:19:18;25.77;;;20.80;;
15159;SDS011;7680;48.800;9.680;2023-03-01T02:22:06;24.37;;;20.17;;
15159;SDS011;7680;48.800;9.680;2023-03-01T02:24:50;24.17;;;21.43;;
15159;SDS011;7680;48.800;9.680;2023-03-01T02:27:37;24.83;;;20.70;;
15159;SDS011;7680;48.800;9.680;2023-03-01T02:30:20;28.53;;;21.70;;
15159;SDS011;7680;48.800;9.680;2023-03-01T02:32:55;26.77;;;21.47;;
15159;SDS011;7680;48.800;9.680;2023-03-01T02:35:34;24.03;;;20.43;;
15159;SDS011;7680;48.800;9.680;2023-03-01T02:38:10;25.73;;;21.07;;
15159;SDS011;7680;48.800;9.680;2023-03-01T02:40:44;25.20;;;21.37;;
15159;SDS011;7680;48.800;9.680;2023-03-01T02:43:17;25.67;;;20.77;;
15159;SDS011;7680;48.800;9.680;2023-03-01T02:45:57;22.77;;;20.27;;
15159;SDS011;7680;48.800;9.680;2023-03-01T02:48:40;26.20;;;21.37;;
15159;SDS011;7680;48.800;9.680;2023-03-01T02:51:23;25.43;;;20.40;;
15159;SDS011;7680;48.800;9.680;2023-03-01T02:54:08;24.13;;;21.00;;
15159;SDS011;7680;48.800;9.680;2023-03-01T02:56:50;24.00;;;20.07;;
15159;SDS011;7680;48.800;9.680;2023-03-01T02:59:24;24.50;;;20.87;;
15159;SDS011;7680;48.800;9.680;2023-03-01T03:02:02;25.67;;;21.20;;
15159;SDS011;7680;48.800;9.680;2023-03-01T03:04:35;26.40;;;21.13;;
15159;SDS011;7680;48.800;9.680;2023-03-01T03:07:09;25.83;;;20.37;;
15159;SDS011;7680;48.800;9.680;2023-03-01T03:09:41;23.20;;;19.73;;
15159;SDS011;7680;48.800;9.680;2023-03-01T03:12:14;27.10;;;21.70;;
15159;SDS011;7680;48.800;9.680;2023-03-01T03:14:47;24.70;;;21.23;;
15159;SDS011;7680;48.800;9.680;2023-03-01T03:17:22;24.30;;;20.80;;
15159;SDS011;7680;48.800;9.680;2023-03-01T03:19:55;27.03;;;21.43;;
15159;SDS011;7680;48.800;9.680;2023-03-01T03:22:28;26.10;;;21.60;;
15159;SDS011;7680;48.800;9.680;2023-03-01T03:25:01;26.60;;;23.03;;
15159;SDS011;7680;48.800;9.680;2023-03-01T03:27:34;27.13;;;22.20;;
15159;SDS011;7680;48.800;9.680;2023-03-01T03:30:08;25.33;;;22.63;;
15159;SDS011;7680;48.800;9.680;2023-03-01T03:32:46;25.50;;;21.33;;
15159;SDS011;7680;48.800;9.680;2023-03-01T03:35:24;27.50;;;22.40;;
15159;SDS011;7680;48.800;9.680;2023-03-01T03:38:03;23.17;;;20.67;;
15159;SDS011;7680;48.800;9.680;2023-03-01T03:40:39;25.23;;;21.80;;
15159;SDS011;7680;48.800;9.680;2023-03-01T03:43:14;25.97;;;22.47;;
15159;SDS011;7680;48.800;9.680;2023-03-01T03:45:50;26.80;;;22.43;;
15159;SDS011;7680;48.800;9.680;2023-03-01T03:48:26;28.37;;;23.70;;
15159;SDS011;7680;48.800;9.680;2023-03-01T03:51:00;24.00;;;21.20;;
15159;SDS011;7680;48.800;9.680;2023-03-01T03:53:33;24.27;;;20.63;;
15159;SDS011;7680;48.800;9.680;2023-03-01T03:56:06;25.13;;;21.73;;
15159;SDS011;7680;48.800;9.680;2023-03-01T03:58:40;23.87;;;21.30;;
15159;SDS011;7680;48.800;9.680;2023-03-01T04:01:13;26.77;;;20.53;;
15159;SDS011;7680;48.800;9.680;2023-03-01T04:03:47;26.17;;;21.90;;
15159;SDS011;7680;48.800;9.680;2023-03-01T04:06:25;24.43;;;21.67;;
15159;SDS011;7680;48.800;9.680;2023-03-01T04:08:59;26.40;;;23.33;;
15159;SDS011;7680;48.800;9.680;2023-03-01T04:11:34;26.97;;;22.13;;
15159;SDS011;7680;48.800;9.680;2023-03-01T04:14:07;24.50;;;21.73;;
15159;SDS011;7680;48.800;9.680;2023-03-01T04:16:40;25.73;;;22.40;;
15159;SDS011;7680;48.800;9.680;2023-03-01T04:19:14;26.77;;;23.27;;
15159;SDS011;7680;48.800;9.680;2023-03-01T04:21:47;23.33;;;20.83;;
15159;SDS011;7680;48.800;9.680;2023-03-01T04:24:21;26.10;;;23.00;;
15159;SDS011;7680;48.800;9.680;2023-03-01T04:26:54;27.97;;;22.87;;
15159;SDS011;7680;48.800;9.680;2023-03-01T04:29:27;23.97;;;21.23;;
15159;SDS011;7680;48.800;9.680;2023-03-01T04:32:00;25.67;;;22.50;;
15159;SDS011;7680;48.800;9.680;2023-03-01T04:34:35;26.60;;;22.90;;
15159;SDS011;7680;48.800;9.680;2023-03-01T04:37:09;27.10;;;21.80;;
15159;SDS011;7680;48.800;9.680;2023-03-01T04:39:42;27.20;;;24.27;;
15159;SDS011;7680;48.800;9.680;2023-03-01T04:42:17;26.57;;;22.83;;
15159;SDS011;7680;48.800;9.680;2023-03-01T04:44:50;27.63;;;23.47;;
15159;SDS011;7680;48.800;9.680;2023-03-01T04:47:24;25.50;;;22.10;;
15159;SDS011;7680;48.800;9.680;2023-03-01T04:49:58;25.33;;;22.60;;
15159;SDS011;7680;48.800;9.680;2023-03-01T04:52:31;25.67;;;22.13;;
15159;SDS011;7680;48.800;9.680;2023-03-01T04:55:05;26.47;;;22.23;;
15159;SDS011;7680;48.800;9.680;2023-03-01T04:57:39;26.47;;;22.87;;
15159;SDS011;7680;48.800;9.680;2023-03-01T05:00:13;24.57;;;21.57;;
15159;SDS011;7680;48.800;9.680;2023-03-01T05:02:53;25.10;;;22.40;;
15159;SDS011;7680;48.800;9.680;2023-03-01T05:05:30;26.07;;;22.80;;
15159;SDS011;7680;48.800;9.680;2023-03-01T05:08:06;25.97;;;23.07;;
15159;SDS011;7680;48.800;9.680;2023-03-01T05:10:49;26.23;;;22.47;;
15159;SDS011;7680;48.800;9.680;2023-03-01T05:13:24;24.00;;;21.40;;
15159;SDS011;7680;48.800;9.680;2023-03-01T05:15:58;26.03;;;22.97;;
15159;SDS011;7680;48.800;9.680;2023-03-01T05:18:33;25.20;;;22.13;;
15159;SDS011;7680;48.800;9.680;2023-03-01T05:21:08;25.03;;;22.33;;
15159;SDS011;7680;48.800;9.680;2023-03-01T05:23:43;25.37;;;22.67;;
15159;SDS011;7680;48.800;9.680;2023-03-01T05:26:18;27.47;;;23.63;;
15159;SDS011;7680;48.800;9.680;2023-03-01T05:28:59;26.77;;;22.13;;
15159;SDS011;7680;48.800;9.680;2023-03-01T05:31:32;27.37;;;23.37;;
15159;SDS011;7680;48.800;9.680;2023-03-01T05:34:05;29.27;;;23.77;;
15159;SDS011;7680;48.800;9.680;2023-03-01T05:36:39;26.40;;;22.37;;
15159;SDS011;7680;48.800;9.680;2023-03-01T05:39:13;26.27;;;23.33;;
15159;SDS011;7680;48.800;9.680;2023-03-01T05:41:46;26.33;;;22.53;;
15159;SDS011;7680;48.800;9.680;2023-03-01T05:44:19;25.67;;;22.87;;
15159;SDS011;7680;48.800;9.680;2023-03-01T05:46:53;25.67;;;22.17;;
15159;SDS011;7680;48.800;9.680;2023-03-01T05:49:27;28.37;;;23.07;;
15159;SDS011;7680;48.800;9.680;2023-03-01T05:52:02;25.87;;;21.97;;
15159;SDS011;7680;48.800;9.680;2023-03-01T05:54:36;25.60;;;22.27;;
15159;SDS011;7680;48.800;9.680;2023-03-01T05:57:09;24.77;;;21.13;;
15159;SDS011;7680;48.800;9.680;2023-03-01T05:59:43;26.57;;;23.00;;
15159;SDS011;7680;48.800;9.680;2023-03-01T06:02:16;25.67;;;22.87;;
15159;SDS011;7680;48.800;9.680;2023-03-01T06:04:49;25.13;;;22.43;;
15159;SDS011;7680;48.800;9.680;2023-03-01T06:07:24;24.63;;;21.93;;
15159;SDS011;7680;48.800;9.680;2023-03-01T06:09:57;27.63;;;23.70;;
15159;SDS011;7680;48.800;9.680;2023-03-01T06:12:31;25.57;;;22.13;;
15159;SDS011;7680;48.800;9.680;2023-03-01T06:15:05;29.00;;;24.43;;
15159;SDS011;7680;48.800;9.680;2023-03-01T06:17:41;30.17;;;24.03;;
15159;SDS011;7680;48.800;9.680;2023-03-01T06:20:17;29.30;;;24.30;;
15159;SDS011;7680;48.800;9.680;2023-03-01T06:22:54;27.07;;;23.47;;
15159;SDS011;7680;48.800;9.680;2023-03-01T06:25:27;28.93;;;23.93;;
15159;SDS011;7680;48.800;9.680;2023-03-01T06:28:00;29.43;;;24.97;;
15159;SDS011;7680;48.800;9.680;2023-03-01T06:30:33;27.37;;;22.90;;
15159;SDS011;7680;48.800;9.680;2023-03-01T06:33:06;27.60;;;23.57;;
15159;SDS011;7680;48.800;9.680;2023-03-01T06:35:39;26.90;;;22.70;;
15159;SDS011;7680;48.800;9.680;2023-03-01T06:38:14;25.00;;;22.30;;
15159;SDS011;7680;48.800;9.680;2023-03-01T06:40:52;28.30;;;22.93;;
15159;SDS011;7680;48.800;9.680;2023-03-01T06:43:27;26.63;;;23.73;;
15159;SDS011;7680;48.800;9.680;2023-03-01T06:46:03;26.80;;;22.47;;
15159;SDS011;7680;48.800;9.680;2023-03-01T06:48:37;27.80;;;23.03;;
15159;SDS011;7680;48.800;9.680;2023-03-01T06:51:11;27.43;;;23.87;;
15159;SDS011;7680;48.800;9.680;2023-03-01T06:53:46;27.73;;;23.67;;
15159;SDS011;7680;48.800;9.680;2023-03-01T06:56:19;28.47;;;23.47;;
15159;SDS011;7680;48.800;9.680;2023-03-01T06:58:52;25.93;;;22.40;;
15159;SDS011;7680;48.800;9.680;2023-03-01T07:01:25;25.50;;;22.67;;
15159;SDS011;7680;48.800;9.680;2023-03-01T07:03:59;26.47;;;22.37;;
15159;SDS011;7680;48.800;9.680;2023-03-01T07:06:32;27.60;;;23.07;;
15159;SDS011;7680;48.800;9.680;2023-03-01T07:09:06;25.57;;;22.87;;
15159;SDS011;7680;48.800;9.680;2023-03-01T07:11:39;25.90;;;23.07;;
15159;SDS011;7680;48.800;9.680;2023-03-01T07:14:13;28.47;;;23.60;;
15159;SDS011;7680;48.800;9.680;2023-03-01T07:16:46;25.00;;;22.30;;
15159;SDS011;7680;48.800;9.680;2023-03-01T07:19:19;27.90;;;23.43;;
15159;SDS011;7680;48.800;9.680;2023-03-01T07:21:53;25.67;;;22.83;;
15159;SDS011;7680;48.800;9.680;2023-03-01T07:24:28;27.40;;;23.40;;
15159;SDS011;7680;48.800;9.680;2023-03-01T07:27:01;25.73;;;23.03;;
15159;SDS011;7680;48.800;9.680;2023-03-01T07:29:34;27.43;;;23.23;;
15159;SDS011;7680;48.800;9.680;2023-03-01T07:32:08;27.83;;;22.97;;
15159;SDS011;7680;48.800;9.680;2023-03-01T07:34:43;27.93;;;22.70;;
15159;SDS011;7680;48.800;9.680;2023-03-01T07:37:16;24.07;;;21.47;;
15159;SDS011;7680;48.800;9.680;2023-03-01T07:39:50;26.00;;;22.43;;
15159;SDS011;7680;48.800;9.680;2023-03-01T07:42:23;26.20;;;23.37;;
15159;SDS011;7680;48.800;9.680;2023-03-01T07:44:56;27.53;;;24.20;;
15159;SDS011;7680;48.800;9.680;2023-03-01T07:47:30;25.43;;;21.90;;
15159;SDS011;7680;48.800;9.680;2023-03-01T07:50:04;27.13;;;23.07;;
15159;SDS011;7680;48.800;9.680;2023-03-01T07:52:37;25.97;;;23.17;;
15159;SDS011;7680;48.800;9.680;2023-03-01T07:55:12;27.50;;;23.20;;
15159;SDS011;7680;48.800;9.680;2023-03-01T07:57:45;26.23;;;23.27;;
15159;SDS011;7680;48.800;9.680;2023-03-01T08:00:19;25.53;;;22.03;;
15159;SDS011;7680;48.800;9.680;2023-03-01T08:02:52;25.47;;;22.73;;
15159;SDS011;7680;48.800;9.680;2023-03-01T08:05:25;25.43;;;22.73;;
15159;SDS011;7680;48.800;9.680;2023-03-01T08:07:59;26.83;;;22.50;;
15159;SDS011;7680;48.800;9.680;2023-03-01T08:10:33;26.63;;;22.67;;
15159;SDS011;7680;48.800;9.680;2023-03-01T08:13:06;28.53;;;23.50;;
15159;SDS011;7680;48.800;9.680;2023-03-01T08:15:39;26.37;;;23.40;;
15159;SDS011;7680;48.800;9.680;2023-03-01T08:18:12;25.83;;;22.30;;
15159;SDS011;7680;48.800;9.680;2023-03-01T08:20:45;25.93;;;21.97;;
15159;SDS011;7680;48.800;9.680;2023-03-01T08:23:19;27.60;;;22.60;;
15159;SDS011;7680;48.800;9.680;2023-03-01T08:25:54;29.13;;;23.80;;
15159;SDS011;7680;48.800;9.680;2023-03-01T08:28:27;26.83;;;23.07;;
15159;SDS011;7680;48.800;9.680;2023-03-01T08:31:00;27.93;;;23.47;;
15159;SDS011;7680;48.800;9.680;2023-03-01T08:33:34;25.83;;;22.57;;
15159;SDS011;7680;48.800;9.680;2023-03-01T08:36:07;25.13;;;22.53;;
15159;SDS011;7680;48.800;9.680;2023-03-01T08:38:40;25.97;;;22.87;;
15159;SDS011;7680;48.800;9.680;2023-03-01T08:41:14;26.93;;;23.90;;
15159;SDS011;7680;48.800;9.680;2023-03-01T08:43:48;25.20;;;22.43;;
15159;SDS011;7680;48.800;9.680;2023-03-01T08:46:22;25.03;;;21.73;;
15159;SDS011;7680;48.800;9.680;2023-03-01T08:48:55;24.87;;;21.57;;
15159;SDS011;7680;48.800;9.680;2023-03-01T08:51:28;25.83;;;22.20;;
15159;SDS011;7680;48.800;9.680;2023-03-01T08:54:03;25.53;;;22.50;;
15159;SDS011;7680;48.800;9.680;2023-03-01T08:56:39;26.00;;;22.63;;
15159;SDS011;7680;48.800;9.680;2023-03-01T08:59:13;27.30;;;22.20;;
15159;SDS011;7680;48.800;9.680;2023-03-01T09:01:48;25.07;;;22.47;;
15159;SDS011;7680;48.800;9.680;2023-03-01T09:04:21;24.37;;;20.83;;
15159;SDS011;7680;48.800;9.680;2023-03-01T09:06:54;27.53;;;23.23;;
15159;SDS011;7680;48.800;9.680;2023-03-01T09:09:28;24.10;;;21.50;;
15159;SDS011;7680;48.800;9.680;2023-03-01T09:12:02;25.23;;;22.37;;
15159;SDS011;7680;48.800;9.680;2023-03-01T09:14:36;24.77;;;22.17;;
15159;SDS011;7680;48.800;9.680;2023-03-01T09:17:10;26.33;;;21.30;;
15159;SDS011;7680;48.800;9.680;2023-03-01T09:19:43;26.50;;;21.70;;
15159;SDS011;7680;48.800;9.680;2023-03-01T09:22:16;24.60;;;21.13;;
15159;SDS011;7680;48.800;9.680;2023-03-01T09:24:49;23.80;;;21.30;;
15159;SDS011;7680;48.800;9.680;2023-03-01T09:27:24;24.07;;;21.67;;
15159;SDS011;7680;48.800;9.680;2023-03-01T09:29:57;25.63;;;22.23;;
15159;SDS011;7680;48.800;9.680;2023-03-01T09:32:30;23.70;;;21.30;;
15159;SDS011;7680;48.800;9.680;2023-03-01T09:35:04;25.60;;;20.77;;
15159;SDS011;7680;48.800;9.680;2023-03-01T09:37:38;26.20;;;21.87;;
15159;SDS011;7680;48.800;9.680;2023-03-01T09:40:14;25.20;;;21.63;;
15159;SDS011;7680;48.800;9.680;2023-03-01T09:42:54;24.13;;;21.53;;
15159;SDS011;7680;48.800;9.680;2023-03-01T09:45:34;25.07;;;22.20;;
15159;SDS011;7680;48.800;9.680;2023-03-01T09:48:12;24.03;;;21.53;;
15159;SDS011;7680;48.800;9.680;2023-03-01T09:50:49;23.30;;;20.90;;
15159;SDS011;7680;48.800;9.680;2023-03-01T09:53:25;25.10;;;21.90;;
15159;SDS011;7680;48.800;9.680;2023-03-01T09:56:10;25.63;;;22.23;;
15159;SDS011;7680;48.800;9.680;2023-03-01T09:58:54;23.77;;;21.27;;
15159;SDS011;7680;48.800;9.680;2023-03-01T10:01:38;24.70;;;22.00;;
15159;SDS011;7680;48.800;9.680;2023-03-01T10:04:28;23.87;;;21.33;;
15159;SDS011;7680;48.800;9.680;2023-03-01T10:07:17;23.50;;;20.63;;
15159;SDS011;7680;48.800;9.680;2023-03-01T10:10:00;22.80;;;20.37;;
15159;SDS011;7680;48.800;9.680;2023-03-01T10:12:37;22.77;;;20.47;;
15159;SDS011;7680;48.800;9.680;2023-03-01T10:15:15;23.37;;;20.60;;
15159;SDS011;7680;48.800;9.680;2023-03-01T10:17:55;22.90;;;20.60;;
15159;SDS011;7680;48.800;9.680;2023-03-01T10:20:37;21.30;;;19.10;;
15159;SDS011;7680;48.800;9.680;2023-03-01T10:23:19;22.27;;;19.97;;
15159;SDS011;7680;48.800;9.680;2023-03-01T10:25:56;23.03;;;20.27;;
15159;SDS011;7680;48.800;9.680;2023-03-01T10:28:45;21.83;;;19.50;;
15159;SDS011;7680;48.800;9.680;2023-03-01T10:31:31;22.97;;;19.83;;
15159;SDS011;7680;48.800;9.680;2023-03-01T10:34:12;22.43;;;19.10;;
15159;SDS011;7680;48.800;9.680;2023-03-01T10:36:49;22.23;;;19.87;;
15159;SDS011;7680;48.800;9.680;2023-03-01T10:39:24;22.40;;;19.63;;
15159;SDS011;7680;48.800;9.680;2023-03-01T10:41:59;21.43;;;19.27;;
15159;SDS011;7680;48.800;9.680;2023-03-01T10:44:38;22.03;;;19.73;;
15159;SDS011;7680;48.800;9.680;2023-03-01T10:47:20;22.40;;;19.93;;
15159;SDS011;7680;48.800;9.680;2023-03-01T10:50:00;23.73;;;21.10;;
15159;SDS011;7680;48.800;9.680;2023-03-01T10:52:36;21.63;;;19.40;;
15159;SDS011;7680;48.800;9.680;2023-03-01T10:55:22;22.00;;;19.80;;
15159;SDS011;7680;48.800;9.680;2023-03-01T10:58:06;23.07;;;20.53;;
15159;SDS011;7680;48.800;9.680;2023-03-01T11:00:48;24.00;;;19.93;;
15159;SDS011;7680;48.800;9.680;2023-03-01T11:03:26;21.20;;;18.73;;
15159;SDS011;7680;48.800;9.680;2023-03-01T11:06:02;21.03;;;18.83;;
15159;SDS011;7680;48.800;9.680;2023-03-01T11:08:45;26.50;;;20.33;;
15159;SDS011;7680;48.800;9.680;2023-03-01T11:11:24;23.40;;;19.43;;
15159;SDS011;7680;48.800;9.680;2023-03-01T11:14:06;20.83;;;18.73;;
15159;SDS011;7680;48.800;9.680;2023-03-01T11:16:58;20.93;;;18.73;;
15159;SDS011;7680;48.800;9.680;2023-03-01T11:19:35;20.70;;;18.60;;
15159;SDS011;7680;48.800;9.680;2023-03-01T11:22:11;22.43;;;19.90;;
15159;SDS011;7680;48.800;9.680;2023-03-01T11:24:46;24.00;;;20.87;;
15159;SDS011;7680;48.800;9.680;2023-03-01T11:27:40;22.30;;;19.37;;
15159;SDS011;7680;48.800;9.680;2023-03-01T11:30:18;23.80;;;21.20;;
15159;SDS011;7680;48.800;9.680;2023-03-01T11:32:59;23.87;;;21.27;;
15159;SDS011;7680;48.800;9.680;2023-03-01T11:35:46;22.43;;;20.07;;
15159;SDS011;7680;48.800;9.680;2023-03-01T11:38:28;23.63;;;20.97;;
15159;SDS011;7680;48.800;9.680;2023-03-01T11:41:06;22.63;;;20.23;;
15159;SDS011;7680;48.800;9.680;2023-03-01T11:43:47;22.43;;;20.03;;
15159;SDS011;7680;48.800;9.680;2023-03-01T11:46:33;22.47;;;20.17;;
15159;SDS011;7680;48.800;9.680;2023-03-01T11:49:38;24.07;;;21.53;;
15159;SDS011;7680;48.800;9.680;2023-03-01T11:52:35;23.40;;;21.00;;
15159;SDS011;7680;48.800;9.680;2023-03-01T11:55:42;23.33;;;20.93;;
15159;SDS011;7680;48.800;9.680;2023-03-01T11:58:35;23.90;;;20.27;;
15159;SDS011;7680;48.800;9.680;2023-03-01T12:01:35;23.57;;;20.70;;
15159;SDS011;7680;48.800;9.680;2023-03-01T12:07:39;23.80;;;20.03;;
15159;SDS011;7680;48.800;9.680;2023-03-01T12:10:23;22.80;;;20.37;;
15159;SDS011;7680;48.800;9.680;2023-03-01T12:13:13;22.60;;;20.20;;
15159;SDS011;7680;48.800;9.680;2023-03-01T12:16:12;23.60;;;20.63;;
15159;SDS011;7680;48.800;9.680;2023-03-01T12:19:19;24.00;;;19.97;;
15159;SDS011;7680;48.800;9.680;2023-03-01T12:22:16;21.57;;;19.30;;
15159;SDS011;7680;48.800;9.680;2023-03-01T12:25:17;20.07;;;17.83;;
15159;SDS011;7680;48.800;9.680;2023-03-01T12:28:02;20.47;;;18.27;;
15159;SDS011;7680;48.800;9.680;2023-03-01T12:31:00;20.50;;;18.40;;
15159;SDS011;7680;48.800;9.680;2023-03-01T12:34:03;20.23;;;18.13;;
15159;SDS011;7680;48.800;9.680;2023-03-01T12:40:02;19.73;;;17.73;;
15159;SDS011;7680;48.800;9.680;2023-03-01T12:42:56;19.87;;;17.80;;
15159;SDS011;7680;48.800;9.680;2023-03-01T12:45:47;20.37;;;18.37;;
15159;SDS011;7680;48.800;9.680;2023-03-01T12:48:32;18.90;;;17.00;;
15159;SDS011;7680;48.800;9.680;2023-03-01T12:51:15;20.53;;;18.53;;
15159;SDS011;7680;48.800;9.680;2023-03-01T12:53:52;19.67;;;17.57;;
15159;SDS011;7680;48.800;9.680;2023-03-01T12:56:30;20.17;;;18.10;;
15159;SDS011;7680;48.800;9.680;2023-03-01T12:59:11;20.47;;;18.47;;
15159;SDS011;7680;48.800;9.680;2023-03-01T13:01:52;22.87;;;19.07;;
15159;SDS011;7680;48.800;9.680;2023-03-01T13:04:31;20.90;;;18.60;;
15159;SDS011;7680;48.800;9.680;2023-03-01T13:07:23;21.30;;;19.13;;
15159;SDS011;7680;48.800;9.680;2023-03-01T13:10:16;20.80;;;18.70;;
15159;SDS011;7680;48.800;9.680;2023-03-01T13:13:09;19.50;;;17.13;;
15159;SDS011;7680;48.800;9.680;2023-03-01T13:15:51;21.37;;;19.07;;
15159;SDS011;7680;48.800;9.680;2023-03-01T13:18:29;21.30;;;19.07;;
15159;SDS011;7680;48.800;9.680;2023-03-01T13:21:04;21.23;;;19.03;;
15159;SDS011;7680;48.800;9.680;2023-03-01T13:23:38;21.13;;;18.97;;
15159;SDS011;7680;48.800;9.680;2023-03-01T13:26:13;21.57;;;19.37;;
15159;SDS011;7680;48.800;9.680;2023-03-01T13:28:53;24.70;;;19.83;;
15159;SDS011;7680;48.800;9.680;2023-03-01T13:34:44;21.50;;;19.40;;
15159;SDS011;7680;48.800;9.680;2023-03-01T13:43:30;21.27;;;19.07;;
15159;SDS011;7680;48.800;9.680;2023-03-01T13:46:09;22.53;;;20.23;;
15159;SDS011;7680;48.800;9.680;2023-03-01T13:48:49;21.53;;;19.10;;
15159;SDS011;7680;48.800;9.680;2023-03-01T13:51:25;21.67;;;19.47;;
15159;SDS011;7680;48.800;9.680;2023-03-01T13:54:00;22.37;;;19.17;;
15159;SDS011;7680;48.800;9.680;2023-03-01T13:56:33;21.23;;;19.03;;
15159;SDS011;7680;48.800;9.680;2023-03-01T13:59:13;23.90;;;19.50;;
15159;SDS011;7680;48.800;9.680;2023-03-01T14:01:55;22.30;;;20.00;;
15159;SDS011;7680;48.800;9.680;2023-03-01T14:04:31;21.27;;;19.17;;
15159;SDS011;7680;48.800;9.680;2023-03-01T14:07:10;19.80;;;17.80;;
15159;SDS011;7680;48.800;9.680;2023-03-01T14:09:45;21.13;;;18.93;;
15159;SDS011;7680;48.800;9.680;2023-03-01T14:12:26;21.83;;;19.63;;
15159;SDS011;7680;48.800;9.680;2023-03-01T14:15:14;21.30;;;19.03;;
15159;SDS011;7680;48.800;9.680;2023-03-01T14:17:55;22.30;;;19.90;;
15159;SDS011;7680;48.800;9.680;2023-03-01T14:20:33;21.47;;;18.97;;
15159;SDS011;7680;48.800;9.680;2023-03-01T14:23:11;21.40;;;18.93;;
15159;SDS011;7680;48.800;9.680;2023-03-01T14:25:48;20.70;;;18.67;;
15159;SDS011;7680;48.800;9.680;2023-03-01T14:28:24;20.90;;;18.80;;
15159;SDS011;7680;48.800;9.680;2023-03-01T14:31:00;20.93;;;18.93;;
15159;SDS011;7680;48.800;9.680;2023-03-01T14:33:35;20.63;;;18.47;;
15159;SDS011;7680;48.800;9.680;2023-03-01T14:36:12;21.83;;;18.47;;
15159;SDS011;7680;48.800;9.680;2023-03-01T14:38:46;20.70;;;18.57;;
15159;SDS011;7680;48.800;9.680;2023-03-01T14:41:20;21.13;;;18.70;;
15159;SDS011;7680;48.800;9.680;2023-03-01T14:43:58;20.23;;;18.23;;
15159;SDS011;7680;48.800;9.680;2023-03-01T14:46:34;20.43;;;18.37;;
15159;SDS011;7680;48.800;9.680;2023-03-01T14:49:12;20.70;;;17.87;;
15159;SDS011;7680;48.800;9.680;2023-03-01T14:51:50;21.07;;;18.80;;
15159;SDS011;7680;48.800;9.680;2023-03-01T14:54:28;20.70;;;18.53;;
15159;SDS011;7680;48.800;9.680;2023-03-01T14:57:13;21.33;;;19.13;;
15159;SDS011;7680;48.800;9.680;2023-03-01T14:59:49;20.57;;;18.43;;
15159;SDS011;7680;48.800;9.680;2023-03-01T15:02:26;19.90;;;17.93;;
15159;SDS011;7680;48.800;9.680;2023-03-01T15:05:02;20.87;;;18.67;;
15159;SDS011;7680;48.800;9.680;2023-03-01T15:07:39;20.93;;;18.43;;
15159;SDS011;7680;48.800;9.680;2023-03-01T15:10:20;19.10;;;17.10;;
15159;SDS011;7680;48.800;9.680;2023-03-01T15:12:56;20.63;;;18.47;;
15159;SDS011;7680;48.800;9.680;2023-03-01T15:15:42;20.40;;;18.10;;
15159;SDS011;7680;48.800;9.680;2023-03-01T15:18:18;19.73;;;17.57;;
15159;SDS011;7680;48.800;9.680;2023-03-01T15:20:56;19.53;;;17.47;;
15159;SDS011;7680;48.800;9.680;2023-03-01T15:23:40;20.50;;;17.10;;
15159;SDS011;7680;48.800;9.680;2023-03-01T15:26:20;18.77;;;16.87;;
15159;SDS011;7680;48.800;9.680;2023-03-01T15:28:57;19.63;;;17.73;;
15159;SDS011;7680;48.800;9.680;2023-03-01T15:31:32;17.90;;;16.00;;
15159;SDS011;7680;48.800;9.680;2023-03-01T15:34:19;18.93;;;16.93;;
15159;SDS011;7680;48.800;9.680;2023-03-01T15:36:58;19.23;;;16.93;;
15159;SDS011;7680;48.800;9.680;2023-03-01T15:39:34;18.63;;;16.80;;
15159;SDS011;7680;48.800;9.680;2023-03-01T15:42:11;18.90;;;16.90;;
15159;SDS011;7680;48.800;9.680;2023-03-01T15:44:47;18.77;;;16.87;;
15159;SDS011;7680;48.800;9.680;2023-03-01T15:47:23;18.70;;;16.80;;
15159;SDS011;7680;48.800;9.680;2023-03-01T15:50:00;18.47;;;16.67;;
15159;SDS011;7680;48.800;9.680;2023-03-01T15:52:36;19.87;;;17.77;;